sensor_id;sensor_type;location;lat;lon;timestamp;temperature;humidity
262;DHT22;114;48.260;10.988;2023-07-29T00:00:46;15.40;99.90
262;DHT22;114;48.260;10.988;2023-07-29T00:03:12;15.40;99.90
262;DHT22;114;48.260;10.988;2023-07-29T00:05:37;15.40;99.90
262;DHT22;114;48.260;10.988;2023-07-29T00:08:04;15.20;99.90
262;DHT22;114;48.260;10.988;2023-07-29T00:10:32;15.20;99.90
262;DHT22;114;48.260;10.988;2023-07-29T00:12:58;15.20;99.90
262;DHT22;114;48.260;10.988;2023-07-29T00:15:24;15.20;99.90
262;DHT22;114;48.260;10.988;2023-07-29T00:17:50;15.10;99.90
262;DHT22;114;48.260;10.988;2023-07-29T00:20:15;15.00;99.90
262;DHT22;114;48.260;10.988;2023-07-29T00:22:41;15.00;99.90
262;DHT22;114;48.260;10.988;2023-07-29T00:25:07;15.00;99.90
262;DHT22;114;48.260;10.988;2023-07-29T00:27:33;15.10;99.90
262;DHT22;114;48.260;10.988;2023-07-29T00:29:58;15.10;99.90
262;DHT22;114;48.260;10.988;2023-07-29T00:32:25;15.20;99.90
262;DHT22;114;48.260;10.988;2023-07-29T00:34:50;15.10;99.90
262;DHT22;114;48.260;10.988;2023-07-29T00:37:16;15.00;99.90
262;DHT22;114;48.260;10.988;2023-07-29T00:39:42;14.90;99.90
262;DHT22;114;48.260;10.988;2023-07-29T00:42:08;14.90;99.90
262;DHT22;114;48.260;10.988;2023-07-29T00:44:34;14.80;99.90
262;DHT22;114;48.260;10.988;2023-07-29T00:47:02;14.90;99.90
262;DHT22;114;48.260;10.988;2023-07-29T00:49:30;14.90;99.90
262;DHT22;114;48.260;10.988;2023-07-29T00:51:56;14.80;99.90
262;DHT22;114;48.260;10.988;2023-07-29T00:54:24;14.70;99.90
262;DHT22;114;48.260;10.988;2023-07-29T00:56:50;14.70;99.90
262;DHT22;114;48.260;10.988;2023-07-29T00:59:16;14.70;99.90
262;DHT22;114;48.260;10.988;2023-07-29T01:01:42;14.60;99.90
262;DHT22;114;48.260;10.988;2023-07-29T01:04:08;14.50;99.90
262;DHT22;114;48.260;10.988;2023-07-29T01:07:03;14.50;99.90
262;DHT22;114;48.260;10.988;2023-07-29T01:12:21;14.40;99.90
262;DHT22;114;48.260;10.988;2023-07-29T01:15:14;14.10;99.90
262;DHT22;114;48.260;10.988;2023-07-29T01:17:43;14.30;99.90
262;DHT22;114;48.260;10.988;2023-07-29T01:20:14;14.30;99.90
262;DHT22;114;48.260;10.988;2023-07-29T01:22:41;14.30;99.90
262;DHT22;114;48.260;10.988;2023-07-29T01:25:07;14.20;99.90
262;DHT22;114;48.260;10.988;2023-07-29T01:27:33;14.20;99.90
262;DHT22;114;48.260;10.988;2023-07-29T01:30:00;14.20;99.90
262;DHT22;114;48.260;10.988;2023-07-29T01:32:42;14.20;99.90
262;DHT22;114;48.260;10.988;2023-07-29T01:35:15;14.20;99.90
262;DHT22;114;48.260;10.988;2023-07-29T01:37:46;14.10;99.90
262;DHT22;114;48.260;10.988;2023-07-29T01:40:14;14.10;99.90
262;DHT22;114;48.260;10.988;2023-07-29T01:42:40;14.00;99.90
262;DHT22;114;48.260;10.988;2023-07-29T01:45:07;14.00;99.90
262;DHT22;114;48.260;10.988;2023-07-29T01:47:33;13.90;99.90
262;DHT22;114;48.260;10.988;2023-07-29T01:49:59;13.90;99.90
262;DHT22;114;48.260;10.988;2023-07-29T01:52:25;13.90;99.90
262;DHT22;114;48.260;10.988;2023-07-29T01:54:50;14.00;99.90
262;DHT22;114;48.260;10.988;2023-07-29T01:57:16;14.00;99.90
262;DHT22;114;48.260;10.988;2023-07-29T01:59:42;14.00;99.90
262;DHT22;114;48.260;10.988;2023-07-29T02:02:08;14.00;99.90
262;DHT22;114;48.260;10.988;2023-07-29T02:04:33;14.00;99.90
262;DHT22;114;48.260;10.988;2023-07-29T02:06:59;13.90;99.90
262;DHT22;114;48.260;10.988;2023-07-29T02:09:25;13.90;99.90
262;DHT22;114;48.260;10.988;2023-07-29T02:11:51;13.90;99.90
262;DHT22;114;48.260;10.988;2023-07-29T02:14:17;13.90;99.90
262;DHT22;114;48.260;10.988;2023-07-29T02:16:43;13.90;99.90
262;DHT22;114;48.260;10.988;2023-07-29T02:19:08;13.90;99.90
262;DHT22;114;48.260;10.988;2023-07-29T02:21:34;13.90;99.90
262;DHT22;114;48.260;10.988;2023-07-29T02:24:00;13.90;99.90
262;DHT22;114;48.260;10.988;2023-07-29T02:26:26;14.00;99.90
262;DHT22;114;48.260;10.988;2023-07-29T02:28:51;14.00;99.90
262;DHT22;114;48.260;10.988;2023-07-29T02:31:22;14.00;99.90
262;DHT22;114;48.260;10.988;2023-07-29T02:33:48;14.00;99.90
262;DHT22;114;48.260;10.988;2023-07-29T02:36:15;14.00;99.90
262;DHT22;114;48.260;10.988;2023-07-29T02:38:41;13.90;99.90
262;DHT22;114;48.260;10.988;2023-07-29T02:41:08;14.00;99.90
262;DHT22;114;48.260;10.988;2023-07-29T02:43:35;14.00;99.90
262;DHT22;114;48.260;10.988;2023-07-29T02:46:02;14.00;99.90
262;DHT22;114;48.260;10.988;2023-07-29T02:48:28;14.00;99.90
262;DHT22;114;48.260;10.988;2023-07-29T02:50:55;14.00;99.90
262;DHT22;114;48.260;10.988;2023-07-29T02:53:22;14.00;99.90
262;DHT22;114;48.260;10.988;2023-07-29T02:55:48;14.00;99.90
262;DHT22;114;48.260;10.988;2023-07-29T02:58:13;14.00;99.90
262;DHT22;114;48.260;10.988;2023-07-29T03:00:39;14.10;99.90
262;DHT22;114;48.260;10.988;2023-07-29T03:03:08;14.10;99.90
262;DHT22;114;48.260;10.988;2023-07-29T03:05:34;14.20;99.90
262;DHT22;114;48.260;10.988;2023-07-29T03:08:00;14.20;99.90
262;DHT22;114;48.260;10.988;2023-07-29T03:10:26;14.20;99.90
262;DHT22;114;48.260;10.988;2023-07-29T03:12:54;14.20;99.90
262;DHT22;114;48.260;10.988;2023-07-29T03:15:23;14.20;99.90
262;DHT22;114;48.260;10.988;2023-07-29T03:17:51;14.20;99.90
262;DHT22;114;48.260;10.988;2023-07-29T03:20:16;14.20;99.90
262;DHT22;114;48.260;10.988;2023-07-29T03:22:44;14.20;99.90
262;DHT22;114;48.260;10.988;2023-07-29T03:25:10;14.30;99.90
262;DHT22;114;48.260;10.988;2023-07-29T03:27:35;14.30;99.90
262;DHT22;114;48.260;10.988;2023-07-29T03:30:06;14.30;99.90
262;DHT22;114;48.260;10.988;2023-07-29T03:32:33;14.30;99.90
262;DHT22;114;48.260;10.988;2023-07-29T03:34:58;14.30;99.90
262;DHT22;114;48.260;10.988;2023-07-29T03:37:24;14.30;99.90
262;DHT22;114;48.260;10.988;2023-07-29T03:39:50;14.30;99.90
262;DHT22;114;48.260;10.988;2023-07-29T03:42:17;14.20;99.90
262;DHT22;114;48.260;10.988;2023-07-29T03:44:43;14.20;99.90
262;DHT22;114;48.260;10.988;2023-07-29T03:47:09;14.10;99.90
262;DHT22;114;48.260;10.988;2023-07-29T03:49:35;14.10;99.90
262;DHT22;114;48.260;10.988;2023-07-29T03:52:01;14.10;99.90
262;DHT22;114;48.260;10.988;2023-07-29T03:54:26;14.10;99.90
262;DHT22;114;48.260;10.988;2023-07-29T03:56:52;14.10;99.90
262;DHT22;114;48.260;10.988;2023-07-29T03:59:18;14.10;99.90
262;DHT22;114;48.260;10.988;2023-07-29T04:01:43;14.00;99.90
262;DHT22;114;48.260;10.988;2023-07-29T04:04:09;14.00;99.90
262;DHT22;114;48.260;10.988;2023-07-29T04:06:35;14.00;99.90
262;DHT22;114;48.260;10.988;2023-07-29T04:09:01;14.00;99.90
262;DHT22;114;48.260;10.988;2023-07-29T04:11:28;14.00;99.90
262;DHT22;114;48.260;10.988;2023-07-29T04:13:53;14.10;99.90
262;DHT22;114;48.260;10.988;2023-07-29T04:16:19;14.10;99.90
262;DHT22;114;48.260;10.988;2023-07-29T04:18:45;14.10;99.90
262;DHT22;114;48.260;10.988;2023-07-29T04:21:11;14.20;99.90
262;DHT22;114;48.260;10.988;2023-07-29T04:23:36;14.20;99.90
262;DHT22;114;48.260;10.988;2023-07-29T04:26:02;14.30;99.90
262;DHT22;114;48.260;10.988;2023-07-29T04:28:28;14.40;99.90
262;DHT22;114;48.260;10.988;2023-07-29T04:30:55;14.50;99.90
262;DHT22;114;48.260;10.988;2023-07-29T04:33:21;14.60;99.90
262;DHT22;114;48.260;10.988;2023-07-29T04:35:47;14.60;99.90
262;DHT22;114;48.260;10.988;2023-07-29T04:38:13;14.80;99.90
262;DHT22;114;48.260;10.988;2023-07-29T04:40:38;14.90;99.90
262;DHT22;114;48.260;10.988;2023-07-29T04:43:05;15.00;99.90
262;DHT22;114;48.260;10.988;2023-07-29T04:45:31;15.10;99.90
262;DHT22;114;48.260;10.988;2023-07-29T04:47:58;15.40;99.90
262;DHT22;114;48.260;10.988;2023-07-29T04:50:24;15.50;99.90
262;DHT22;114;48.260;10.988;2023-07-29T04:52:51;15.70;99.90
262;DHT22;114;48.260;10.988;2023-07-29T04:55:18;15.80;99.90
262;DHT22;114;48.260;10.988;2023-07-29T04:57:44;16.00;99.90
262;DHT22;114;48.260;10.988;2023-07-29T05:00:11;16.10;99.90
262;DHT22;114;48.260;10.988;2023-07-29T05:02:36;16.30;99.90
262;DHT22;114;48.260;10.988;2023-07-29T05:05:02;16.40;99.90
262;DHT22;114;48.260;10.988;2023-07-29T05:07:28;16.50;99.90
262;DHT22;114;48.260;10.988;2023-07-29T05:09:54;16.70;99.30
262;DHT22;114;48.260;10.988;2023-07-29T05:12:20;16.80;98.40
262;DHT22;114;48.260;10.988;2023-07-29T05:14:45;16.90;96.90
262;DHT22;114;48.260;10.988;2023-07-29T05:17:11;17.00;95.60
262;DHT22;114;48.260;10.988;2023-07-29T05:19:37;17.00;94.20
262;DHT22;114;48.260;10.988;2023-07-29T05:22:03;17.10;94.30
262;DHT22;114;48.260;10.988;2023-07-29T05:24:28;17.20;93.40
262;DHT22;114;48.260;10.988;2023-07-29T05:26:54;17.20;91.90
262;DHT22;114;48.260;10.988;2023-07-29T05:29:20;17.20;90.60
262;DHT22;114;48.260;10.988;2023-07-29T05:31:46;17.20;91.30
262;DHT22;114;48.260;10.988;2023-07-29T05:34:11;17.20;92.10
262;DHT22;114;48.260;10.988;2023-07-29T05:36:37;17.30;93.70
262;DHT22;114;48.260;10.988;2023-07-29T05:39:04;17.50;94.20
262;DHT22;114;48.260;10.988;2023-07-29T05:41:30;17.70;91.40
262;DHT22;114;48.260;10.988;2023-07-29T05:43:56;17.90;87.30
262;DHT22;114;48.260;10.988;2023-07-29T05:46:21;18.20;83.10
262;DHT22;114;48.260;10.988;2023-07-29T05:48:47;18.30;77.40
262;DHT22;114;48.260;10.988;2023-07-29T05:51:13;18.40;72.80
262;DHT22;114;48.260;10.988;2023-07-29T05:53:39;18.50;70.80
262;DHT22;114;48.260;10.988;2023-07-29T05:56:04;18.60;71.90
262;DHT22;114;48.260;10.988;2023-07-29T05:58:30;18.60;68.20
262;DHT22;114;48.260;10.988;2023-07-29T06:00:57;18.80;62.30
262;DHT22;114;48.260;10.988;2023-07-29T06:03:24;18.90;59.60
262;DHT22;114;48.260;10.988;2023-07-29T06:05:50;18.90;60.80
262;DHT22;114;48.260;10.988;2023-07-29T06:08:15;19.20;58.50
262;DHT22;114;48.260;10.988;2023-07-29T06:10:41;19.40;52.70
262;DHT22;114;48.260;10.988;2023-07-29T06:13:07;19.30;52.10
262;DHT22;114;48.260;10.988;2023-07-29T06:15:33;19.10;55.00
262;DHT22;114;48.260;10.988;2023-07-29T06:17:59;18.70;73.10
262;DHT22;114;48.260;10.988;2023-07-29T06:20:25;18.30;88.90
262;DHT22;114;48.260;10.988;2023-07-29T06:22:50;18.10;92.40
262;DHT22;114;48.260;10.988;2023-07-29T06:25:16;18.00;94.00
262;DHT22;114;48.260;10.988;2023-07-29T06:27:42;17.90;95.40
262;DHT22;114;48.260;10.988;2023-07-29T06:30:08;17.90;96.20
262;DHT22;114;48.260;10.988;2023-07-29T06:32:34;17.80;96.40
262;DHT22;114;48.260;10.988;2023-07-29T06:35:00;17.80;96.10
262;DHT22;114;48.260;10.988;2023-07-29T06:37:26;17.90;95.10
262;DHT22;114;48.260;10.988;2023-07-29T06:39:52;18.00;94.90
262;DHT22;114;48.260;10.988;2023-07-29T06:42:18;18.00;93.90
262;DHT22;114;48.260;10.988;2023-07-29T06:44:43;18.10;93.10
262;DHT22;114;48.260;10.988;2023-07-29T06:47:11;18.20;92.70
262;DHT22;114;48.260;10.988;2023-07-29T06:49:38;18.20;92.40
262;DHT22;114;48.260;10.988;2023-07-29T06:52:04;18.10;90.70
262;DHT22;114;48.260;10.988;2023-07-29T06:54:29;18.00;92.40
262;DHT22;114;48.260;10.988;2023-07-29T06:56:55;17.90;93.20
262;DHT22;114;48.260;10.988;2023-07-29T06:59:21;17.90;94.20
262;DHT22;114;48.260;10.988;2023-07-29T07:01:47;18.00;95.40
262;DHT22;114;48.260;10.988;2023-07-29T07:04:12;18.10;94.00
262;DHT22;114;48.260;10.988;2023-07-29T07:06:38;18.30;93.80
262;DHT22;114;48.260;10.988;2023-07-29T07:09:04;18.40;89.80
262;DHT22;114;48.260;10.988;2023-07-29T07:11:30;18.60;80.40
262;DHT22;114;48.260;10.988;2023-07-29T07:13:55;18.80;80.00
262;DHT22;114;48.260;10.988;2023-07-29T07:16:21;18.90;73.40
262;DHT22;114;48.260;10.988;2023-07-29T07:18:47;19.00;69.60
262;DHT22;114;48.260;10.988;2023-07-29T07:21:12;19.20;62.60
262;DHT22;114;48.260;10.988;2023-07-29T07:23:39;19.50;62.30
262;DHT22;114;48.260;10.988;2023-07-29T07:26:05;19.60;50.70
262;DHT22;114;48.260;10.988;2023-07-29T07:28:30;19.70;51.90
262;DHT22;114;48.260;10.988;2023-07-29T07:30:56;19.70;52.80
262;DHT22;114;48.260;10.988;2023-07-29T07:33:22;19.80;50.90
262;DHT22;114;48.260;10.988;2023-07-29T07:35:48;19.90;48.80
262;DHT22;114;48.260;10.988;2023-07-29T07:38:14;20.00;53.20
262;DHT22;114;48.260;10.988;2023-07-29T07:40:40;20.10;47.00
262;DHT22;114;48.260;10.988;2023-07-29T07:43:06;20.10;45.70
262;DHT22;114;48.260;10.988;2023-07-29T07:45:33;20.10;45.70
262;DHT22;114;48.260;10.988;2023-07-29T07:47:58;20.30;48.30
262;DHT22;114;48.260;10.988;2023-07-29T07:50:29;20.40;42.30
262;DHT22;114;48.260;10.988;2023-07-29T07:52:56;20.40;45.70
262;DHT22;114;48.260;10.988;2023-07-29T07:55:22;20.40;45.40
262;DHT22;114;48.260;10.988;2023-07-29T07:57:48;20.50;46.10
262;DHT22;114;48.260;10.988;2023-07-29T08:00:14;20.50;44.70
262;DHT22;114;48.260;10.988;2023-07-29T08:02:41;20.40;47.20
262;DHT22;114;48.260;10.988;2023-07-29T08:05:07;20.50;49.20
262;DHT22;114;48.260;10.988;2023-07-29T08:07:33;20.60;39.90
262;DHT22;114;48.260;10.988;2023-07-29T08:09:58;20.70;35.80
262;DHT22;114;48.260;10.988;2023-07-29T08:12:24;20.80;32.60
262;DHT22;114;48.260;10.988;2023-07-29T08:14:50;20.90;30.00
262;DHT22;114;48.260;10.988;2023-07-29T08:17:15;21.10;31.20
262;DHT22;114;48.260;10.988;2023-07-29T08:19:41;21.10;29.90
262;DHT22;114;48.260;10.988;2023-07-29T08:22:07;21.10;30.30
262;DHT22;114;48.260;10.988;2023-07-29T08:24:33;21.10;26.70
262;DHT22;114;48.260;10.988;2023-07-29T08:26:59;21.20;28.70
262;DHT22;114;48.260;10.988;2023-07-29T08:29:25;21.20;28.10
262;DHT22;114;48.260;10.988;2023-07-29T08:31:52;21.20;26.80
262;DHT22;114;48.260;10.988;2023-07-29T08:34:17;21.20;27.30
262;DHT22;114;48.260;10.988;2023-07-29T08:36:43;21.20;27.20
262;DHT22;114;48.260;10.988;2023-07-29T08:39:09;21.20;29.30
262;DHT22;114;48.260;10.988;2023-07-29T08:44:20;21.30;28.30
262;DHT22;114;48.260;10.988;2023-07-29T08:46:47;21.20;28.10
262;DHT22;114;48.260;10.988;2023-07-29T08:49:14;21.50;27.00
262;DHT22;114;48.260;10.988;2023-07-29T08:51:42;21.70;27.40
262;DHT22;114;48.260;10.988;2023-07-29T08:54:09;21.80;23.70
262;DHT22;114;48.260;10.988;2023-07-29T08:56:36;22.20;20.10
262;DHT22;114;48.260;10.988;2023-07-29T08:59:02;22.40;16.10
262;DHT22;114;48.260;10.988;2023-07-29T09:01:29;22.40;16.50
262;DHT22;114;48.260;10.988;2023-07-29T09:03:56;22.40;23.20
262;DHT22;114;48.260;10.988;2023-07-29T09:06:23;22.80;22.90
262;DHT22;114;48.260;10.988;2023-07-29T09:08:51;23.30;16.30
262;DHT22;114;48.260;10.988;2023-07-29T09:11:19;22.90;13.90
262;DHT22;114;48.260;10.988;2023-07-29T09:13:46;23.30;9.20
262;DHT22;114;48.260;10.988;2023-07-29T09:16:12;23.30;8.90
262;DHT22;114;48.260;10.988;2023-07-29T09:18:38;23.40;7.90
262;DHT22;114;48.260;10.988;2023-07-29T09:21:04;23.30;9.50
262;DHT22;114;48.260;10.988;2023-07-29T09:23:40;23.40;10.10
262;DHT22;114;48.260;10.988;2023-07-29T09:26:06;23.20;12.20
262;DHT22;114;48.260;10.988;2023-07-29T09:28:34;23.70;10.10
262;DHT22;114;48.260;10.988;2023-07-29T09:31:00;24.00;7.20
262;DHT22;114;48.260;10.988;2023-07-29T09:33:26;23.80;2.40
262;DHT22;114;48.260;10.988;2023-07-29T09:35:52;23.80;2.20
262;DHT22;114;48.260;10.988;2023-07-29T09:38:18;24.00;1.90
262;DHT22;114;48.260;10.988;2023-07-29T09:40:57;24.20;1.00
262;DHT22;114;48.260;10.988;2023-07-29T09:43:29;24.40;1.00
262;DHT22;114;48.260;10.988;2023-07-29T09:46:02;24.70;1.00
262;DHT22;114;48.260;10.988;2023-07-29T09:48:32;24.60;1.00
262;DHT22;114;48.260;10.988;2023-07-29T09:50:58;24.60;1.00
262;DHT22;114;48.260;10.988;2023-07-29T09:53:24;24.50;1.00
262;DHT22;114;48.260;10.988;2023-07-29T09:55:50;24.90;1.00
262;DHT22;114;48.260;10.988;2023-07-29T09:58:27;24.60;1.00
262;DHT22;114;48.260;10.988;2023-07-29T10:00:53;24.40;1.00
262;DHT22;114;48.260;10.988;2023-07-29T10:03:21;24.40;1.00
262;DHT22;114;48.260;10.988;2023-07-29T10:05:47;24.60;1.00
262;DHT22;114;48.260;10.988;2023-07-29T10:08:14;24.90;1.00
262;DHT22;114;48.260;10.988;2023-07-29T10:10:42;24.40;1.00
262;DHT22;114;48.260;10.988;2023-07-29T10:13:08;24.30;1.00
262;DHT22;114;48.260;10.988;2023-07-29T10:15:36;24.30;1.00
262;DHT22;114;48.260;10.988;2023-07-29T10:18:02;24.00;1.00
262;DHT22;114;48.260;10.988;2023-07-29T10:20:30;24.00;1.00
262;DHT22;114;48.260;10.988;2023-07-29T10:22:59;23.80;1.00
262;DHT22;114;48.260;10.988;2023-07-29T10:25:40;23.90;1.00
262;DHT22;114;48.260;10.988;2023-07-29T10:28:10;23.30;1.00
262;DHT22;114;48.260;10.988;2023-07-29T10:30:39;22.30;1.00
262;DHT22;114;48.260;10.988;2023-07-29T10:33:05;21.90;1.00
262;DHT22;114;48.260;10.988;2023-07-29T10:35:35;21.60;2.20
262;DHT22;114;48.260;10.988;2023-07-29T10:38:02;21.30;1.00
262;DHT22;114;48.260;10.988;2023-07-29T10:40:47;20.60;15.60
262;DHT22;114;48.260;10.988;2023-07-29T10:43:39;19.30;26.60
262;DHT22;114;48.260;10.988;2023-07-29T10:46:17;19.20;28.00
262;DHT22;114;48.260;10.988;2023-07-29T10:51:34;19.00;41.90
262;DHT22;114;48.260;10.988;2023-07-29T10:54:02;18.80;54.30
262;DHT22;114;48.260;10.988;2023-07-29T10:56:32;18.70;60.20
262;DHT22;114;48.260;10.988;2023-07-29T11:01:50;19.10;62.70
262;DHT22;114;48.260;10.988;2023-07-29T11:17:36;21.50;33.60
262;DHT22;114;48.260;10.988;2023-07-29T11:20:03;22.10;36.30
262;DHT22;114;48.260;10.988;2023-07-29T11:22:29;22.50;43.20
262;DHT22;114;48.260;10.988;2023-07-29T11:24:55;22.50;25.80
262;DHT22;114;48.260;10.988;2023-07-29T11:27:21;22.30;33.10
262;DHT22;114;48.260;10.988;2023-07-29T11:29:48;22.40;36.70
262;DHT22;114;48.260;10.988;2023-07-29T11:32:14;22.70;25.00
262;DHT22;114;48.260;10.988;2023-07-29T11:34:41;23.00;26.70
262;DHT22;114;48.260;10.988;2023-07-29T11:37:10;23.10;29.20
262;DHT22;114;48.260;10.988;2023-07-29T11:39:43;23.30;22.70
262;DHT22;114;48.260;10.988;2023-07-29T11:42:13;23.70;17.30
262;DHT22;114;48.260;10.988;2023-07-29T11:44:38;23.90;19.60
262;DHT22;114;48.260;10.988;2023-07-29T11:47:08;24.00;20.00
262;DHT22;114;48.260;10.988;2023-07-29T11:49:35;24.00;21.00
262;DHT22;114;48.260;10.988;2023-07-29T11:52:02;24.20;20.30
262;DHT22;114;48.260;10.988;2023-07-29T11:54:29;24.20;19.10
262;DHT22;114;48.260;10.988;2023-07-29T11:56:56;24.20;17.00
262;DHT22;114;48.260;10.988;2023-07-29T11:59:21;24.30;17.00
262;DHT22;114;48.260;10.988;2023-07-29T12:01:47;24.40;12.80
262;DHT22;114;48.260;10.988;2023-07-29T12:04:13;23.90;16.30
262;DHT22;114;48.260;10.988;2023-07-29T12:06:39;23.40;17.40
262;DHT22;114;48.260;10.988;2023-07-29T12:09:06;23.20;23.70
262;DHT22;114;48.260;10.988;2023-07-29T12:11:33;23.30;28.80
262;DHT22;114;48.260;10.988;2023-07-29T12:14:00;24.00;23.00
262;DHT22;114;48.260;10.988;2023-07-29T12:16:27;24.40;17.00
262;DHT22;114;48.260;10.988;2023-07-29T12:19:00;24.30;15.10
262;DHT22;114;48.260;10.988;2023-07-29T12:21:26;24.00;13.70
262;DHT22;114;48.260;10.988;2023-07-29T12:23:51;23.70;18.00
262;DHT22;114;48.260;10.988;2023-07-29T12:26:17;23.50;20.50
262;DHT22;114;48.260;10.988;2023-07-29T12:28:46;23.50;21.00
262;DHT22;114;48.260;10.988;2023-07-29T12:31:13;23.30;25.70
262;DHT22;114;48.260;10.988;2023-07-29T12:33:39;23.20;24.60
262;DHT22;114;48.260;10.988;2023-07-29T12:36:05;23.00;25.80
262;DHT22;114;48.260;10.988;2023-07-29T12:38:30;23.00;24.50
262;DHT22;114;48.260;10.988;2023-07-29T12:40:56;23.00;25.40
262;DHT22;114;48.260;10.988;2023-07-29T12:43:23;23.40;22.40
262;DHT22;114;48.260;10.988;2023-07-29T12:45:50;24.90;15.50
262;DHT22;114;48.260;10.988;2023-07-29T12:48:17;27.50;1.00
262;DHT22;114;48.260;10.988;2023-07-29T12:50:42;28.30;1.00
262;DHT22;114;48.260;10.988;2023-07-29T12:53:09;27.90;1.00
262;DHT22;114;48.260;10.988;2023-07-29T12:55:37;27.60;1.00
262;DHT22;114;48.260;10.988;2023-07-29T12:58:03;26.50;1.00
262;DHT22;114;48.260;10.988;2023-07-29T13:00:30;25.90;1.00
262;DHT22;114;48.260;10.988;2023-07-29T13:02:56;25.10;1.00
262;DHT22;114;48.260;10.988;2023-07-29T13:05:21;24.80;1.00
262;DHT22;114;48.260;10.988;2023-07-29T13:07:47;24.70;1.00
262;DHT22;114;48.260;10.988;2023-07-29T13:10:13;24.20;1.00
262;DHT22;114;48.260;10.988;2023-07-29T13:12:40;24.30;1.00
262;DHT22;114;48.260;10.988;2023-07-29T13:15:06;24.20;2.50
262;DHT22;114;48.260;10.988;2023-07-29T13:17:33;24.10;2.40
262;DHT22;114;48.260;10.988;2023-07-29T13:19:59;24.60;2.20
262;DHT22;114;48.260;10.988;2023-07-29T13:22:24;25.40;1.00
262;DHT22;114;48.260;10.988;2023-07-29T13:24:50;26.60;1.00
262;DHT22;114;48.260;10.988;2023-07-29T13:27:16;26.90;1.00
262;DHT22;114;48.260;10.988;2023-07-29T13:29:41;26.30;1.00
262;DHT22;114;48.260;10.988;2023-07-29T13:32:08;26.00;1.00
262;DHT22;114;48.260;10.988;2023-07-29T13:34:34;26.10;1.00
262;DHT22;114;48.260;10.988;2023-07-29T13:37:00;26.10;1.00
262;DHT22;114;48.260;10.988;2023-07-29T13:39:26;25.90;1.00
262;DHT22;114;48.260;10.988;2023-07-29T13:41:55;25.70;1.00
262;DHT22;114;48.260;10.988;2023-07-29T13:44:20;25.60;1.00
262;DHT22;114;48.260;10.988;2023-07-29T13:46:46;25.50;1.00
262;DHT22;114;48.260;10.988;2023-07-29T13:49:12;25.70;1.00
262;DHT22;114;48.260;10.988;2023-07-29T13:51:37;25.60;1.00
262;DHT22;114;48.260;10.988;2023-07-29T13:54:03;25.90;1.00
262;DHT22;114;48.260;10.988;2023-07-29T13:56:29;26.20;1.00
262;DHT22;114;48.260;10.988;2023-07-29T13:58:55;26.40;1.00
262;DHT22;114;48.260;10.988;2023-07-29T14:01:20;26.10;1.00
262;DHT22;114;48.260;10.988;2023-07-29T14:03:46;25.90;1.00
262;DHT22;114;48.260;10.988;2023-07-29T14:06:13;25.60;1.00
262;DHT22;114;48.260;10.988;2023-07-29T14:08:38;25.40;1.00
262;DHT22;114;48.260;10.988;2023-07-29T14:11:06;25.30;1.00
262;DHT22;114;48.260;10.988;2023-07-29T14:13:32;25.00;1.00
262;DHT22;114;48.260;10.988;2023-07-29T14:15:59;24.70;1.00
262;DHT22;114;48.260;10.988;2023-07-29T14:18:25;24.50;1.00
262;DHT22;114;48.260;10.988;2023-07-29T14:20:50;24.40;1.00
262;DHT22;114;48.260;10.988;2023-07-29T14:23:16;24.20;1.00
262;DHT22;114;48.260;10.988;2023-07-29T14:25:42;24.10;1.90
262;DHT22;114;48.260;10.988;2023-07-29T14:28:08;23.70;9.20
262;DHT22;114;48.260;10.988;2023-07-29T14:30:34;23.20;12.00
262;DHT22;114;48.260;10.988;2023-07-29T14:33:01;22.30;10.50
262;DHT22;114;48.260;10.988;2023-07-29T14:35:27;20.70;13.20
262;DHT22;114;48.260;10.988;2023-07-29T14:37:52;19.10;29.80
262;DHT22;114;48.260;10.988;2023-07-29T14:40:19;18.20;54.40
262;DHT22;114;48.260;10.988;2023-07-29T14:42:45;17.90;74.70
262;DHT22;114;48.260;10.988;2023-07-29T14:45:11;17.70;83.30
262;DHT22;114;48.260;10.988;2023-07-29T14:47:38;17.80;83.90
262;DHT22;114;48.260;10.988;2023-07-29T14:50:04;18.10;69.70
262;DHT22;114;48.260;10.988;2023-07-29T14:52:30;18.20;63.40
262;DHT22;114;48.260;10.988;2023-07-29T14:54:56;18.40;60.20
262;DHT22;114;48.260;10.988;2023-07-29T14:57:22;18.50;65.90
262;DHT22;114;48.260;10.988;2023-07-29T14:59:48;18.50;73.80
262;DHT22;114;48.260;10.988;2023-07-29T15:02:13;17.70;99.90
262;DHT22;114;48.260;10.988;2023-07-29T15:04:39;16.80;99.90
262;DHT22;114;48.260;10.988;2023-07-29T15:07:05;16.70;99.90
262;DHT22;114;48.260;10.988;2023-07-29T15:09:32;17.00;99.90
262;DHT22;114;48.260;10.988;2023-07-29T15:11:58;17.30;99.90
262;DHT22;114;48.260;10.988;2023-07-29T15:14:25;17.40;99.90
262;DHT22;114;48.260;10.988;2023-07-29T15:16:52;17.70;99.90
262;DHT22;114;48.260;10.988;2023-07-29T15:19:18;18.00;99.50
262;DHT22;114;48.260;10.988;2023-07-29T15:21:44;18.40;93.90
262;DHT22;114;48.260;10.988;2023-07-29T15:24:10;18.70;87.80
262;DHT22;114;48.260;10.988;2023-07-29T15:26:36;18.90;80.10
262;DHT22;114;48.260;10.988;2023-07-29T15:29:02;19.10;82.50
262;DHT22;114;48.260;10.988;2023-07-29T15:31:27;19.50;65.10
262;DHT22;114;48.260;10.988;2023-07-29T15:33:53;19.50;73.90
262;DHT22;114;48.260;10.988;2023-07-29T15:36:20;19.70;64.70
262;DHT22;114;48.260;10.988;2023-07-29T15:38:46;19.90;56.30
262;DHT22;114;48.260;10.988;2023-07-29T15:41:12;19.70;61.50
262;DHT22;114;48.260;10.988;2023-07-29T15:43:38;19.90;64.00
262;DHT22;114;48.260;10.988;2023-07-29T15:46:04;20.00;63.40
262;DHT22;114;48.260;10.988;2023-07-29T15:48:30;20.10;66.60
262;DHT22;114;48.260;10.988;2023-07-29T15:50:57;20.10;64.80
262;DHT22;114;48.260;10.988;2023-07-29T15:53:23;20.20;57.80
262;DHT22;114;48.260;10.988;2023-07-29T15:55:50;20.20;57.20
262;DHT22;114;48.260;10.988;2023-07-29T15:58:16;20.10;66.00
262;DHT22;114;48.260;10.988;2023-07-29T16:00:42;19.90;73.70
262;DHT22;114;48.260;10.988;2023-07-29T16:03:08;20.00;74.30
262;DHT22;114;48.260;10.988;2023-07-29T16:05:35;20.00;72.70
262;DHT22;114;48.260;10.988;2023-07-29T16:08:01;19.90;74.00
262;DHT22;114;48.260;10.988;2023-07-29T16:10:27;19.90;75.20
262;DHT22;114;48.260;10.988;2023-07-29T16:12:54;20.00;78.40
262;DHT22;114;48.260;10.988;2023-07-29T16:15:20;20.10;79.50
262;DHT22;114;48.260;10.988;2023-07-29T16:17:49;20.20;80.00
262;DHT22;114;48.260;10.988;2023-07-29T16:20:18;20.30;74.60
262;DHT22;114;48.260;10.988;2023-07-29T16:22:45;20.30;77.40
262;DHT22;114;48.260;10.988;2023-07-29T16:25:10;20.30;76.30
262;DHT22;114;48.260;10.988;2023-07-29T16:27:36;20.10;72.30
262;DHT22;114;48.260;10.988;2023-07-29T16:30:02;20.10;71.10
262;DHT22;114;48.260;10.988;2023-07-29T16:32:29;20.00;73.00
262;DHT22;114;48.260;10.988;2023-07-29T16:34:55;20.00;77.90
262;DHT22;114;48.260;10.988;2023-07-29T16:37:21;20.10;78.70
262;DHT22;114;48.260;10.988;2023-07-29T16:39:47;19.90;81.80
262;DHT22;114;48.260;10.988;2023-07-29T16:42:14;19.90;87.90